sensor_id;sensor_type;location;lat;lon;timestamp;pressure;altitude;pressure_sealevel;temperature;humidity
13604;BME280;24578;48.264;11.436;2023-04-28T00:01:32;96127.91;;;6.65;100.00
13604;BME280;24578;48.264;11.436;2023-04-28T00:04:54;96121.69;;;6.69;100.00
13604;BME280;24578;48.264;11.436;2023-04-28T00:08:16;96120.88;;;6.69;100.00
13604;BME280;24578;48.264;11.436;2023-04-28T00:11:37;96119.69;;;6.75;100.00
13604;BME280;24578;48.264;11.436;2023-04-28T00:14:59;96126.47;;;6.76;100.00
13604;BME280;24578;48.264;11.436;2023-04-28T00:18:21;96111.75;;;6.78;100.00
13604;BME280;24578;48.264;11.436;2023-04-28T00:21:43;96113.53;;;6.77;100.00
13604;BME280;24578;48.264;11.436;2023-04-28T00:25:05;96104.88;;;6.78;100.00
13604;BME280;24578;48.264;11.436;2023-04-28T00:28:27;96101.28;;;6.81;100.00
13604;BME280;24578;48.264;11.436;2023-04-28T00:31:49;96097.72;;;6.83;100.00
13604;BME280;24578;48.264;11.436;2023-04-28T00:35:10;96102.78;;;6.85;100.00
13604;BME280;24578;48.264;11.436;2023-04-28T00:38:32;96097.53;;;6.86;100.00
13604;BME280;24578;48.264;11.436;2023-04-28T00:41:54;96100.03;;;6.88;100.00
13604;BME280;24578;48.264;11.436;2023-04-28T00:45:16;96101.75;;;6.88;100.00
13604;BME280;24578;48.264;11.436;2023-04-28T00:48:38;96110.31;;;6.88;100.00
13604;BME280;24578;48.264;11.436;2023-04-28T00:52:04;96097.44;;;6.88;100.00
13604;BME280;24578;48.264;11.436;2023-04-28T00:55:30;96099.00;;;6.91;100.00
13604;BME280;24578;48.264;11.436;2023-04-28T00:58:52;96091.91;;;6.94;100.00
13604;BME280;24578;48.264;11.436;2023-04-28T01:02:14;96094.50;;;6.94;100.00
13604;BME280;24578;48.264;11.436;2023-04-28T01:05:38;96085.69;;;6.98;100.00
13604;BME280;24578;48.264;11.436;2023-04-28T01:09:00;96083.84;;;7.00;100.00
13604;BME280;24578;48.264;11.436;2023-04-28T01:12:22;96075.19;;;7.01;100.00
13604;BME280;24578;48.264;11.436;2023-04-28T01:15:44;96073.25;;;7.05;100.00
13604;BME280;24578;48.264;11.436;2023-04-28T01:19:07;96072.91;;;7.11;100.00
13604;BME280;24578;48.264;11.436;2023-04-28T01:22:33;96063.13;;;7.16;100.00
13604;BME280;24578;48.264;11.436;2023-04-28T01:25:55;96058.81;;;7.17;100.00
13604;BME280;24578;48.264;11.436;2023-04-28T01:29:17;96061.50;;;7.15;100.00
13604;BME280;24578;48.264;11.436;2023-04-28T01:32:38;96055.50;;;7.15;100.00
13604;BME280;24578;48.264;11.436;2023-04-28T01:36:00;96052.84;;;7.16;100.00
13604;BME280;24578;48.264;11.436;2023-04-28T01:39:22;96050.06;;;7.20;100.00
13604;BME280;24578;48.264;11.436;2023-04-28T01:42:44;96046.69;;;7.19;100.00
13604;BME280;24578;48.264;11.436;2023-04-28T01:46:05;96050.75;;;7.23;100.00
13604;BME280;24578;48.264;11.436;2023-04-28T01:49:27;96052.19;;;7.27;100.00
13604;BME280;24578;48.264;11.436;2023-04-28T01:52:51;96058.16;;;7.28;100.00
13604;BME280;24578;48.264;11.436;2023-04-28T01:56:13;96053.53;;;7.33;100.00
13604;BME280;24578;48.264;11.436;2023-04-28T01:59:34;96051.63;;;7.37;100.00
13604;BME280;24578;48.264;11.436;2023-04-28T02:02:56;96064.50;;;7.37;100.00
13604;BME280;24578;48.264;11.436;2023-04-28T02:06:18;96070.47;;;7.37;100.00
13604;BME280;24578;48.264;11.436;2023-04-28T02:09:40;96066.78;;;7.41;100.00
13604;BME280;24578;48.264;11.436;2023-04-28T02:13:01;96069.97;;;7.45;100.00
13604;BME280;24578;48.264;11.436;2023-04-28T02:16:23;96066.59;;;7.44;100.00
13604;BME280;24578;48.264;11.436;2023-04-28T02:19:45;96061.88;;;7.51;100.00
13604;BME280;24578;48.264;11.436;2023-04-28T02:23:07;96042.81;;;7.54;100.00
13604;BME280;24578;48.264;11.436;2023-04-28T02:26:29;96051.41;;;7.54;100.00
13604;BME280;24578;48.264;11.436;2023-04-28T02:29:50;96060.66;;;7.57;100.00
13604;BME280;24578;48.264;11.436;2023-04-28T02:33:13;96038.59;;;7.53;100.00
13604;BME280;24578;48.264;11.436;2023-04-28T02:36:34;96033.38;;;7.54;100.00
13604;BME280;24578;48.264;11.436;2023-04-28T02:39:57;96031.78;;;7.52;100.00
13604;BME280;24578;48.264;11.436;2023-04-28T02:43:18;96035.72;;;7.57;100.00
13604;BME280;24578;48.264;11.436;2023-04-28T02:46:40;96032.22;;;7.58;100.00
13604;BME280;24578;48.264;11.436;2023-04-28T02:50:02;96030.38;;;7.60;100.00
13604;BME280;24578;48.264;11.436;2023-04-28T02:53:24;96030.09;;;7.65;100.00
13604;BME280;24578;48.264;11.436;2023-04-28T02:56:46;96028.44;;;7.64;100.00
13604;BME280;24578;48.264;11.436;2023-04-28T03:00:08;96023.81;;;7.69;100.00
13604;BME280;24578;48.264;11.436;2023-04-28T03:03:30;96021.78;;;7.74;100.00
13604;BME280;24578;48.264;11.436;2023-04-28T03:06:52;96022.16;;;7.68;100.00
13604;BME280;24578;48.264;11.436;2023-04-28T03:10:14;96023.28;;;7.64;100.00
13604;BME280;24578;48.264;11.436;2023-04-28T03:13:36;96016.59;;;7.61;100.00
13604;BME280;24578;48.264;11.436;2023-04-28T03:16:58;96012.53;;;7.57;100.00
13604;BME280;24578;48.264;11.436;2023-04-28T03:20:19;96007.25;;;7.46;100.00
13604;BME280;24578;48.264;11.436;2023-04-28T03:23:41;96002.22;;;7.44;100.00
13604;BME280;24578;48.264;11.436;2023-04-28T03:27:03;96015.91;;;7.45;100.00
13604;BME280;24578;48.264;11.436;2023-04-28T03:30:26;96023.81;;;7.42;100.00
13604;BME280;24578;48.264;11.436;2023-04-28T03:33:48;96014.66;;;7.38;100.00
13604;BME280;24578;48.264;11.436;2023-04-28T03:37:09;96029.06;;;7.40;100.00
13604;BME280;24578;48.264;11.436;2023-04-28T03:40:31;96023.31;;;7.50;100.00
13604;BME280;24578;48.264;11.436;2023-04-28T03:43:53;96017.44;;;7.47;100.00
13604;BME280;24578;48.264;11.436;2023-04-28T03:47:17;96015.78;;;7.61;100.00
13604;BME280;24578;48.264;11.436;2023-04-28T03:50:38;96027.91;;;7.59;100.00
13604;BME280;24578;48.264;11.436;2023-04-28T03:54:01;96035.94;;;7.54;100.00
13604;BME280;24578;48.264;11.436;2023-04-28T03:57:23;96037.94;;;7.64;100.00
13604;BME280;24578;48.264;11.436;2023-04-28T04:00:45;96043.81;;;7.66;100.00
13604;BME280;24578;48.264;11.436;2023-04-28T04:04:07;96042.72;;;7.55;100.00
13604;BME280;24578;48.264;11.436;2023-04-28T04:07:28;96048.84;;;7.40;100.00
13604;BME280;24578;48.264;11.436;2023-04-28T04:10:50;96042.63;;;7.29;100.00
13604;BME280;24578;48.264;11.436;2023-04-28T04:14:13;96033.78;;;7.34;100.00
13604;BME280;24578;48.264;11.436;2023-04-28T04:17:35;96024.28;;;7.34;100.00
13604;BME280;24578;48.264;11.436;2023-04-28T04:20:56;96013.19;;;7.34;100.00
13604;BME280;24578;48.264;11.436;2023-04-28T04:24:18;96018.16;;;7.37;100.00
13604;BME280;24578;48.264;11.436;2023-04-28T04:27:40;96003.44;;;7.24;100.00
13604;BME280;24578;48.264;11.436;2023-04-28T04:31:02;95995.03;;;7.22;100.00
13604;BME280;24578;48.264;11.436;2023-04-28T04:34:23;95997.19;;;7.28;100.00
13604;BME280;24578;48.264;11.436;2023-04-28T04:37:45;95992.22;;;7.25;100.00
13604;BME280;24578;48.264;11.436;2023-04-28T04:41:07;95987.63;;;7.30;100.00
13604;BME280;24578;48.264;11.436;2023-04-28T04:44:29;95981.66;;;7.30;100.00
13604;BME280;24578;48.264;11.436;2023-04-28T04:47:51;95978.16;;;7.31;100.00
13604;BME280;24578;48.264;11.436;2023-04-28T04:51:13;95975.53;;;7.45;100.00
13604;BME280;24578;48.264;11.436;2023-04-28T04:54:34;95988.53;;;7.57;100.00
13604;BME280;24578;48.264;11.436;2023-04-28T04:57:56;95985.84;;;7.58;100.00
13604;BME280;24578;48.264;11.436;2023-04-28T05:01:18;95996.94;;;7.46;100.00
13604;BME280;24578;48.264;11.436;2023-04-28T05:04:40;96007.56;;;7.41;100.00
13604;BME280;24578;48.264;11.436;2023-04-28T05:08:02;96015.72;;;7.48;100.00
13604;BME280;24578;48.264;11.436;2023-04-28T05:11:24;96018.44;;;7.59;100.00
13604;BME280;24578;48.264;11.436;2023-04-28T05:14:46;96022.41;;;7.51;100.00
13604;BME280;24578;48.264;11.436;2023-04-28T05:18:08;96024.06;;;7.52;100.00
13604;BME280;24578;48.264;11.436;2023-04-28T05:21:31;96016.34;;;7.52;100.00
13604;BME280;24578;48.264;11.436;2023-04-28T05:24:53;96019.47;;;7.57;100.00
13604;BME280;24578;48.264;11.436;2023-04-28T05:28:15;96028.72;;;7.59;100.00
13604;BME280;24578;48.264;11.436;2023-04-28T05:31:37;96013.09;;;7.62;100.00
13604;BME280;24578;48.264;11.436;2023-04-28T05:34:58;96001.91;;;7.89;100.00
13604;BME280;24578;48.264;11.436;2023-04-28T05:38:20;96000.06;;;7.91;100.00
13604;BME280;24578;48.264;11.436;2023-04-28T05:41:42;95996.88;;;7.88;100.00
13604;BME280;24578;48.264;11.436;2023-04-28T05:45:05;95997.91;;;7.85;100.00
13604;BME280;24578;48.264;11.436;2023-04-28T05:48:27;95997.25;;;7.82;100.00
13604;BME280;24578;48.264;11.436;2023-04-28T05:51:49;96007.38;;;7.85;100.00
13604;BME280;24578;48.264;11.436;2023-04-28T05:55:10;96009.84;;;7.86;100.00
13604;BME280;24578;48.264;11.436;2023-04-28T05:58:33;96012.03;;;7.92;100.00
13604;BME280;24578;48.264;11.436;2023-04-28T06:01:54;96007.59;;;7.95;100.00
13604;BME280;24578;48.264;11.436;2023-04-28T06:05:16;96022.88;;;7.98;100.00
13604;BME280;24578;48.264;11.436;2023-04-28T06:08:38;96012.38;;;8.14;100.00
13604;BME280;24578;48.264;11.436;2023-04-28T06:12:00;95998.13;;;8.34;100.00
13604;BME280;24578;48.264;11.436;2023-04-28T06:15:21;96002.06;;;8.27;100.00
13604;BME280;24578;48.264;11.436;2023-04-28T06:18:43;96006.50;;;8.25;100.00
13604;BME280;24578;48.264;11.436;2023-04-28T06:22:05;95995.25;;;8.26;100.00
13604;BME280;24578;48.264;11.436;2023-04-28T06:25:28;95990.94;;;8.39;100.00
13604;BME280;24578;48.264;11.436;2023-04-28T06:28:49;95990.97;;;8.52;100.00
13604;BME280;24578;48.264;11.436;2023-04-28T06:32:11;95995.69;;;8.45;100.00
13604;BME280;24578;48.264;11.436;2023-04-28T06:35:33;95999.19;;;8.44;100.00
13604;BME280;24578;48.264;11.436;2023-04-28T06:38:56;95997.78;;;8.53;100.00
13604;BME280;24578;48.264;11.436;2023-04-28T06:42:19;95996.81;;;8.67;100.00
13604;BME280;24578;48.264;11.436;2023-04-28T06:45:41;95983.38;;;8.88;100.00
13604;BME280;24578;48.264;11.436;2023-04-28T06:49:02;95962.38;;;9.05;100.00
13604;BME280;24578;48.264;11.436;2023-04-28T06:52:24;95968.88;;;9.35;100.00
13604;BME280;24578;48.264;11.436;2023-04-28T06:55:48;95982.00;;;9.92;100.00
13604;BME280;24578;48.264;11.436;2023-04-28T06:59:10;95973.47;;;10.14;100.00
13604;BME280;24578;48.264;11.436;2023-04-28T07:02:32;95967.06;;;10.31;100.00
13604;BME280;24578;48.264;11.436;2023-04-28T07:05:53;95963.28;;;10.35;100.00
13604;BME280;24578;48.264;11.436;2023-04-28T07:09:15;95968.50;;;10.58;100.00
13604;BME280;24578;48.264;11.436;2023-04-28T07:12:37;95961.44;;;10.83;100.00
13604;BME280;24578;48.264;11.436;2023-04-28T07:15:59;95955.66;;;11.02;100.00
13604;BME280;24578;48.264;11.436;2023-04-28T07:19:21;95956.72;;;11.11;100.00
13604;BME280;24578;48.264;11.436;2023-04-28T07:22:43;95971.88;;;11.16;100.00
13604;BME280;24578;48.264;11.436;2023-04-28T07:26:05;95959.41;;;11.09;100.00
13604;BME280;24578;48.264;11.436;2023-04-28T07:29:27;95959.88;;;11.15;100.00
13604;BME280;24578;48.264;11.436;2023-04-28T07:32:54;95956.44;;;11.25;100.00
13604;BME280;24578;48.264;11.436;2023-04-28T07:36:16;95967.09;;;11.43;100.00
13604;BME280;24578;48.264;11.436;2023-04-28T07:39:37;95974.72;;;11.56;100.00
13604;BME280;24578;48.264;11.436;2023-04-28T07:43:00;95983.38;;;11.67;100.00
13604;BME280;24578;48.264;11.436;2023-04-28T07:46:22;95969.56;;;11.78;100.00
13604;BME280;24578;48.264;11.436;2023-04-28T07:49:44;95971.38;;;11.87;100.00
13604;BME280;24578;48.264;11.436;2023-04-28T07:53:06;95967.28;;;11.84;100.00
13604;BME280;24578;48.264;11.436;2023-04-28T07:56:29;95965.69;;;11.72;100.00
13604;BME280;24578;48.264;11.436;2023-04-28T07:59:51;95973.47;;;11.72;100.00
13604;BME280;24578;48.264;11.436;2023-04-28T08:03:13;95971.13;;;11.69;100.00
13604;BME280;24578;48.264;11.436;2023-04-28T08:06:35;95960.09;;;11.55;100.00
13604;BME280;24578;48.264;11.436;2023-04-28T08:09:57;95961.28;;;11.51;100.00
13604;BME280;24578;48.264;11.436;2023-04-28T08:13:19;95958.22;;;11.57;100.00
13604;BME280;24578;48.264;11.436;2023-04-28T08:16:40;95947.94;;;11.67;100.00
13604;BME280;24578;48.264;11.436;2023-04-28T08:20:02;95952.50;;;11.75;100.00
13604;BME280;24578;48.264;11.436;2023-04-28T08:23:26;95947.94;;;11.56;100.00
13604;BME280;24578;48.264;11.436;2023-04-28T08:26:51;95945.78;;;11.40;100.00
13604;BME280;24578;48.264;11.436;2023-04-28T08:30:12;95946.50;;;11.42;100.00
13604;BME280;24578;48.264;11.436;2023-04-28T08:33:34;95949.75;;;11.11;100.00
13604;BME280;24578;48.264;11.436;2023-04-28T08:36:56;95944.94;;;11.07;100.00
13604;BME280;24578;48.264;11.436;2023-04-28T08:40:18;95939.50;;;10.99;100.00
13604;BME280;24578;48.264;11.436;2023-04-28T08:43:40;95928.72;;;10.93;100.00
13604;BME280;24578;48.264;11.436;2023-04-28T08:47:11;95922.72;;;10.81;100.00
13604;BME280;24578;48.264;11.436;2023-04-28T08:50:36;95915.28;;;11.00;100.00
13604;BME280;24578;48.264;11.436;2023-04-28T08:54:02;95909.41;;;10.86;100.00
13604;BME280;24578;48.264;11.436;2023-04-28T08:57:34;95907.31;;;10.80;100.00
13604;BME280;24578;48.264;11.436;2023-04-28T09:00:58;95915.97;;;11.02;100.00
13604;BME280;24578;48.264;11.436;2023-04-28T09:04:19;95910.28;;;11.19;100.00
13604;BME280;24578;48.264;11.436;2023-04-28T09:07:45;95913.28;;;11.36;100.00
13604;BME280;24578;48.264;11.436;2023-04-28T09:11:09;95901.72;;;11.40;100.00
13604;BME280;24578;48.264;11.436;2023-04-28T09:14:35;95908.69;;;11.61;100.00
13604;BME280;24578;48.264;11.436;2023-04-28T09:17:57;95905.47;;;11.68;100.00
13604;BME280;24578;48.264;11.436;2023-04-28T09:21:19;95901.50;;;11.64;100.00
13604;BME280;24578;48.264;11.436;2023-04-28T09:24:41;95906.72;;;11.53;100.00
13604;BME280;24578;48.264;11.436;2023-04-28T09:28:19;95897.34;;;11.40;100.00
13604;BME280;24578;48.264;11.436;2023-04-28T09:31:42;95902.84;;;11.26;100.00
13604;BME280;24578;48.264;11.436;2023-04-28T09:35:05;95910.38;;;11.29;100.00
13604;BME280;24578;48.264;11.436;2023-04-28T09:38:27;95913.09;;;11.16;100.00
13604;BME280;24578;48.264;11.436;2023-04-28T09:41:49;95896.19;;;11.01;100.00
13604;BME280;24578;48.264;11.436;2023-04-28T09:45:13;95896.38;;;10.88;100.00
13604;BME280;24578;48.264;11.436;2023-04-28T09:48:36;95899.78;;;10.77;100.00
13604;BME280;24578;48.264;11.436;2023-04-28T09:52:13;95898.38;;;10.73;100.00
13604;BME280;24578;48.264;11.436;2023-04-28T09:55:39;95898.75;;;10.68;100.00
13604;BME280;24578;48.264;11.436;2023-04-28T09:59:04;95893.19;;;10.73;100.00
13604;BME280;24578;48.264;11.436;2023-04-28T10:02:26;95892.03;;;10.77;100.00
13604;BME280;24578;48.264;11.436;2023-04-28T10:05:50;95892.13;;;10.75;100.00
13604;BME280;24578;48.264;11.436;2023-04-28T10:09:13;95888.94;;;10.83;100.00
13604;BME280;24578;48.264;11.436;2023-04-28T10:12:36;95894.16;;;10.72;100.00
13604;BME280;24578;48.264;11.436;2023-04-28T10:15:59;95895.31;;;10.79;100.00
13604;BME280;24578;48.264;11.436;2023-04-28T10:19:21;95888.72;;;10.75;100.00
13604;BME280;24578;48.264;11.436;2023-04-28T10:27:07;95880.72;;;10.78;100.00
13604;BME280;24578;48.264;11.436;2023-04-28T10:30:29;95879.78;;;10.79;100.00
13604;BME280;24578;48.264;11.436;2023-04-28T10:33:51;95882.69;;;10.97;100.00
13604;BME280;24578;48.264;11.436;2023-04-28T10:37:14;95885.25;;;10.97;100.00
13604;BME280;24578;48.264;11.436;2023-04-28T10:40:40;95876.41;;;11.00;100.00
13604;BME280;24578;48.264;11.436;2023-04-28T10:48:01;95882.09;;;11.26;100.00
13604;BME280;24578;48.264;11.436;2023-04-28T10:51:27;95881.09;;;11.38;100.00
13604;BME280;24578;48.264;11.436;2023-04-28T10:59:24;95871.84;;;11.78;100.00
13604;BME280;24578;48.264;11.436;2023-04-28T11:02:46;95886.06;;;11.84;100.00
13604;BME280;24578;48.264;11.436;2023-04-28T11:06:26;95886.91;;;11.63;100.00
13604;BME280;24578;48.264;11.436;2023-04-28T11:09:50;95885.13;;;11.64;100.00
13604;BME280;24578;48.264;11.436;2023-04-28T11:13:27;95879.88;;;11.75;100.00
13604;BME280;24578;48.264;11.436;2023-04-28T11:17:06;95891.25;;;11.84;100.00
13604;BME280;24578;48.264;11.436;2023-04-28T11:20:29;95889.63;;;11.83;100.00
13604;BME280;24578;48.264;11.436;2023-04-28T11:23:51;95894.34;;;11.78;100.00
13604;BME280;24578;48.264;11.436;2023-04-28T11:27:22;95891.44;;;11.71;100.00
13604;BME280;24578;48.264;11.436;2023-04-28T11:30:44;95906.81;;;11.84;100.00
13604;BME280;24578;48.264;11.436;2023-04-28T11:34:09;95913.13;;;11.70;100.00
13604;BME280;24578;48.264;11.436;2023-04-28T11:37:35;95901.44;;;11.54;100.00
13604;BME280;24578;48.264;11.436;2023-04-28T11:40:57;95906.09;;;11.61;100.00
13604;BME280;24578;48.264;11.436;2023-04-28T11:44:22;95898.03;;;11.75;100.00
13604;BME280;24578;48.264;11.436;2023-04-28T11:47:44;95895.22;;;11.88;100.00
13604;BME280;24578;48.264;11.436;2023-04-28T11:51:05;95877.78;;;12.11;100.00
13604;BME280;24578;48.264;11.436;2023-04-28T11:54:27;95880.25;;;12.54;100.00
13604;BME280;24578;48.264;11.436;2023-04-28T11:58:21;95859.88;;;13.09;100.00
13604;BME280;24578;48.264;11.436;2023-04-28T12:01:55;95859.75;;;13.70;100.00
13604;BME280;24578;48.264;11.436;2023-04-28T12:05:19;95865.94;;;14.54;100.00
13604;BME280;24578;48.264;11.436;2023-04-28T12:08:42;95865.59;;;14.57;100.00
13604;BME280;24578;48.264;11.436;2023-04-28T12:12:07;95879.59;;;14.56;100.00
13604;BME280;24578;48.264;11.436;2023-04-28T12:15:39;95875.25;;;14.47;100.00
13604;BME280;24578;48.264;11.436;2023-04-28T12:19:01;95876.44;;;14.25;100.00
13604;BME280;24578;48.264;11.436;2023-04-28T12:22:27;95873.78;;;14.07;100.00
13604;BME280;24578;48.264;11.436;2023-04-28T12:25:49;95885.19;;;14.34;100.00
13604;BME280;24578;48.264;11.436;2023-04-28T12:29:40;95885.72;;;14.37;100.00
13604;BME280;24578;48.264;11.436;2023-04-28T12:33:02;95885.91;;;14.54;100.00
13604;BME280;24578;48.264;11.436;2023-04-28T12:36:24;95886.06;;;14.90;100.00
13604;BME280;24578;48.264;11.436;2023-04-28T12:39:46;95892.72;;;14.74;100.00
13604;BME280;24578;48.264;11.436;2023-04-28T12:43:08;95885.97;;;14.44;100.00
13604;BME280;24578;48.264;11.436;2023-04-28T12:46:29;95888.34;;;14.27;100.00
13604;BME280;24578;48.264;11.436;2023-04-28T12:49:51;95879.31;;;14.31;100.00
13604;BME280;24578;48.264;11.436;2023-04-28T12:53:13;95877.53;;;14.60;100.00
13604;BME280;24578;48.264;11.436;2023-04-28T12:56:35;95879.41;;;14.77;100.00
13604;BME280;24578;48.264;11.436;2023-04-28T12:59:57;95874.81;;;14.52;100.00
13604;BME280;24578;48.264;11.436;2023-04-28T13:03:19;95879.78;;;14.45;100.00
13604;BME280;24578;48.264;11.436;2023-04-28T13:06:41;95873.81;;;14.62;100.00
13604;BME280;24578;48.264;11.436;2023-04-28T13:10:05;95867.94;;;14.60;100.00
13604;BME280;24578;48.264;11.436;2023-04-28T13:13:27;95870.13;;;14.27;100.00
13604;BME280;24578;48.264;11.436;2023-04-28T13:16:49;95861.16;;;14.12;100.00
13604;BME280;24578;48.264;11.436;2023-04-28T13:20:12;95858.19;;;13.97;100.00
13604;BME280;24578;48.264;11.436;2023-04-28T13:23:33;95861.34;;;13.91;100.00
13604;BME280;24578;48.264;11.436;2023-04-28T13:26:55;95856.47;;;13.68;100.00
13604;BME280;24578;48.264;11.436;2023-04-28T13:30:18;95867.44;;;13.52;100.00
13604;BME280;24578;48.264;11.436;2023-04-28T13:33:40;95864.25;;;13.38;100.00
13604;BME280;24578;48.264;11.436;2023-04-28T13:37:02;95853.06;;;13.48;100.00
13604;BME280;24578;48.264;11.436;2023-04-28T13:40:24;95852.94;;;13.49;100.00
13604;BME280;24578;48.264;11.436;2023-04-28T13:43:46;95843.75;;;13.65;100.00
13604;BME280;24578;48.264;11.436;2023-04-28T13:47:08;95844.97;;;13.70;100.00
13604;BME280;24578;48.264;11.436;2023-04-28T13:50:31;95852.88;;;13.79;100.00
13604;BME280;24578;48.264;11.436;2023-04-28T13:53:53;95847.97;;;13.85;100.00
13604;BME280;24578;48.264;11.436;2023-04-28T13:57:15;95846.91;;;14.06;100.00
13604;BME280;24578;48.264;11.436;2023-04-28T14:00:37;95845.19;;;14.35;100.00
13604;BME280;24578;48.264;11.436;2023-04-28T14:03:59;95835.25;;;14.48;100.00
13604;BME280;24578;48.264;11.436;2023-04-28T14:07:21;95835.41;;;14.46;100.00
13604;BME280;24578;48.264;11.436;2023-04-28T14:10:43;95841.88;;;14.60;100.00
13604;BME280;24578;48.264;11.436;2023-04-28T14:14:05;95831.91;;;14.84;100.00
13604;BME280;24578;48.264;11.436;2023-04-28T14:17:27;95833.56;;;14.85;100.00
13604;BME280;24578;48.264;11.436;2023-04-28T14:20:48;95831.28;;;14.72;100.00
13604;BME280;24578;48.264;11.436;2023-04-28T14:24:10;95834.03;;;14.42;100.00
13604;BME280;24578;48.264;11.436;2023-04-28T14:27:32;95839.19;;;14.24;100.00
13604;BME280;24578;48.264;11.436;2023-04-28T14:30:54;95843.38;;;13.97;100.00
13604;BME280;24578;48.264;11.436;2023-04-28T14:34:16;95829.53;;;13.59;100.00
13604;BME280;24578;48.264;11.436;2023-04-28T14:37:38;95829.28;;;13.43;100.00
13604;BME280;24578;48.264;11.436;2023-04-28T14:41:00;95832.25;;;13.28;100.00
13604;BME280;24578;48.264;11.436;2023-04-28T14:44:22;95833.75;;;13.31;100.00
13604;BME280;24578;48.264;11.436;2023-04-28T14:47:44;95827.88;;;13.38;100.00
13604;BME280;24578;48.264;11.436;2023-04-28T14:51:06;95829.28;;;13.43;100.00
13604;BME280;24578;48.264;11.436;2023-04-28T14:54:28;95829.00;;;13.46;100.00
13604;BME280;24578;48.264;11.436;2023-04-28T14:57:49;95832.00;;;13.31;100.00
13604;BME280;24578;48.264;11.436;2023-04-28T15:01:11;95835.81;;;13.27;100.00
13604;BME280;24578;48.264;11.436;2023-04-28T15:04:33;95832.53;;;13.15;100.00
13604;BME280;24578;48.264;11.436;2023-04-28T15:07:55;95833.91;;;13.19;100.00
13604;BME280;24578;48.264;11.436;2023-04-28T15:11:17;95830.63;;;13.07;100.00
13604;BME280;24578;48.264;11.436;2023-04-28T15:14:44;95832.25;;;12.99;100.00
13604;BME280;24578;48.264;11.436;2023-04-28T15:18:06;95835.66;;;13.09;100.00
13604;BME280;24578;48.264;11.436;2023-04-28T15:21:28;95840.47;;;13.14;100.00
13604;BME280;24578;48.264;11.436;2023-04-28T15:24:50;95856.06;;;13.14;100.00
13604;BME280;24578;48.264;11.436;2023-04-28T15:28:12;95849.50;;;13.09;100.00
13604;BME280;24578;48.264;11.436;2023-04-28T15:31:34;95848.53;;;13.01;100.00
13604;BME280;24578;48.264;11.436;2023-04-28T15:34:56;95841.28;;;13.04;100.00
13604;BME280;24578;48.264;11.436;2023-04-28T15:38:18;95850.84;;;12.94;100.00
13604;BME280;24578;48.264;11.436;2023-04-28T15:41:39;95863.25;;;12.71;100.00
13604;BME280;24578;48.264;11.436;2023-04-28T15:45:01;95858.47;;;12.66;100.00
13604;BME280;24578;48.264;11.436;2023-04-28T15:48:23;95843.13;;;12.63;100.00
13604;BME280;24578;48.264;11.436;2023-04-28T15:51:44;95854.69;;;12.49;100.00
13604;BME280;24578;48.264;11.436;2023-04-28T15:55:07;95848.81;;;12.47;100.00
13604;BME280;24578;48.264;11.436;2023-04-28T15:58:30;95849.09;;;12.54;100.00
13604;BME280;24578;48.264;11.436;2023-04-28T16:01:51;95846.13;;;12.58;100.00
13604;BME280;24578;48.264;11.436;2023-04-28T16:05:15;95835.72;;;12.48;100.00
13604;BME280;24578;48.264;11.436;2023-04-28T16:08:37;95829.41;;;12.41;100.00
13604;BME280;24578;48.264;11.436;2023-04-28T16:11:59;95823.97;;;12.44;100.00
13604;BME280;24578;48.264;11.436;2023-04-28T16:15:21;95815.75;;;12.39;100.00
13604;BME280;24578;48.264;11.436;2023-04-28T16:18:43;95814.25;;;12.37;100.00
13604;BME280;24578;48.264;11.436;2023-04-28T16:22:05;95814.75;;;12.30;100.00
13604;BME280;24578;48.264;11.436;2023-04-28T16:25:27;95817.59;;;12.17;100.00
13604;BME280;24578;48.264;11.436;2023-04-28T16:28:49;95813.63;;;12.13;100.00
13604;BME280;24578;48.264;11.436;2023-04-28T16:32:11;95827.13;;;12.17;100.00
13604;BME280;24578;48.264;11.436;2023-04-28T16:35:32;95817.84;;;12.14;100.00
13604;BME280;24578;48.264;11.436;2023-04-28T16:38:54;95810.22;;;12.13;100.00
13604;BME280;24578;48.264;11.436;2023-04-28T16:42:16;95786.75;;;12.24;100.00
13604;BME280;24578;48.264;11.436;2023-04-28T16:45:37;95791.09;;;12.14;100.00
13604;BME280;24578;48.264;11.436;2023-04-28T16:48:59;95809.38;;;12.12;100.00
13604;BME280;24578;48.264;11.436;2023-04-28T16:52:21;95799.53;;;12.06;100.00
13604;BME280;24578;48.264;11.436;2023-04-28T16:55:43;95775.75;;;12.01;100.00
13604;BME280;24578;48.264;11.436;2023-04-28T16:59:04;95797.91;;;12.05;100.00
13604;BME280;24578;48.264;11.436;2023-04-28T17:02:26;95814.78;;;11.99;100.00
13604;BME280;24578;48.264;11.436;2023-04-28T17:05:49;95793.38;;;12.07;100.00
13604;BME280;24578;48.264;11.436;2023-04-28T17:09:11;95788.88;;;12.09;100.00
13604;BME280;24578;48.264;11.436;2023-04-28T17:12:32;95780.41;;;12.07;100.00
13604;BME280;24578;48.264;11.436;2023-04-28T17:15:54;95761.38;;;11.97;100.00
13604;BME280;24578;48.264;11.436;2023-04-28T17:19:17;95761.63;;;11.94;100.00
13604;BME280;24578;48.264;11.436;2023-04-28T17:22:39;95765.88;;;11.95;100.00
13604;BME280;24578;48.264;11.436;2023-04-28T17:26:01;95772.28;;;11.91;100.00
13604;BME280;24578;48.264;11.436;2023-04-28T17:29:25;95766.97;;;11.92;100.00
13604;BME280;24578;48.264;11.436;2023-04-28T17:32:47;95777.97;;;11.84;100.00
13604;BME280;24578;48.264;11.436;2023-04-28T17:36:08;95773.19;;;11.80;100.00
13604;BME280;24578;48.264;11.436;2023-04-28T17:39:30;95789.13;;;11.75;100.00
13604;BME280;24578;48.264;11.436;2023-04-28T17:42:55;95796.91;;;11.75;100.00